• Join FlightAware (Why Join?)
  • Login
  • US Flag 
05:21PM EST


 

Airport Tracker/Info


-or-


 

Live Flight TrackerFlight Track Log ✈ UAL33 ✈ 23-Jul-2013 ✈ KORD - KIAH

Flight Track Log - Related Links

Times and Time Zones

All times are in EDT time to prevent confusion due to time zone crossing. See the UAL33 flight status page for this flight to view local times or setup timezone preferences in your user account.

Time Position Orientation Groundspeed Altitude Reporting Facility
EDT Latitude Longitude Course Direction KTS MPH feet Rate Location/Type
09:57PM 41.9930 -87.9360 320° Northwest 160 184 1,300  Level FlightAware
09:58PM 42.0070 -87.9510 321° Northwest 174 200 2,500 2,700 Climbing FlightAware
09:58PM 42.0270 -87.9730 321° Northwest 210 242 3,700 2,280 Climbing FlightAware
09:59PM 42.0540 -87.9990 324° Northwest 249 287 4,800 1,320 Climbing FlightAware
09:59PM 42.0800 -88.0250 323° Northwest 256 295 5,000 360 Climbing FlightAware
10:00PM 42.1140 -88.0580 324° Northwest 256 295 5,300 2,220 Climbing FlightAware
10:01PM 42.1570 -88.1060 320° Northwest 269 310 8,100 5,400 Climbing FlightAware
10:01PM 42.1630 -88.1250 293° West 274 315 9,000 4,320 Climbing FlightAware
10:01PM 42.1630 -88.1350 270° West 276 318 9,400 3,840 Climbing FlightAware
10:02PM 42.1490 -88.1850 249° West 291 335 11,400 3,420 Climbing FlightAware
10:02PM 42.1340 -88.2230 242° Southwest 298 343 12,500 1,560 Climbing FlightAware
10:03PM 42.1080 -88.2890 242° Southwest 305 351 13,100 1,140 Climbing FlightAware
10:03PM 42.0640 -88.3570 229° Southwest 364 419 14,100 1,920 Climbing FlightAware
10:04PM 42.0080 -88.4270 223° Southwest 402 463 15,900 2,880 Climbing FlightAware
10:05PM 41.9570 -88.5020 228° Southwest 408 470 18,100 3,120 Climbing FlightAware
10:05PM 41.9250 -88.6040 247° West 416 479 20,400 3,180 Climbing FlightAware
10:06PM 41.8970 -88.7000 249° West 419 482 22,600 3,060 Climbing FlightAware
10:07PM 41.8650 -88.8100 249° West 429 494 24,700 2,520 Climbing FlightAware
10:07PM 41.8370 -88.9070 249° West 441 507 26,200 2,280 Climbing FlightAware
10:08PM 41.8040 -89.0230 249° West 452 520 27,900 2,460 Climbing FlightAware
10:09PM 41.7730 -89.1290 249° West 453 521 29,700 2,280 Climbing FlightAware
10:10PM 41.7380 -89.2490 249° West 462 532 31,100 1,920 Climbing FlightAware
10:10PM 41.7090 -89.3510 249° West 464 534 32,400 1,320 Climbing FlightAware
10:11PM 41.6720 -89.4660 247° West 467 537 33,000 420 Climbing FlightAware
10:12PM 41.6210 -89.5620 235° Southwest 474 545 33,000  Level FlightAware
10:12PM 41.5590 -89.6610 230° Southwest 469 540 33,000  Level FlightAware
10:13PM 41.5050 -89.7480 230° Southwest 468 539 33,000 60 Level FlightAware
10:14PM 41.4430 -89.8460 230° Southwest 468 539 33,100 1,080 Climbing FlightAware
10:15PM 41.3860 -89.9360 230° Southwest 462 532 34,600 2,040 Climbing FlightAware
10:15PM 41.3360 -90.0150 230° Southwest 459 528 35,800 1,800 Climbing FlightAware
10:16PM 41.2800 -90.1030 230° Southwest 461 531 36,900 1,680 Climbing FlightAware
10:16PM 41.2260 -90.1870 229° Southwest 453 521 38,100 1,800 Climbing FlightAware
10:17PM 41.1760 -90.2650 230° Southwest 446 513 39,200 1,380 Climbing FlightAware
10:18PM 41.1180 -90.3550 229° Southwest 446 513 40,000 540 Climbing FlightAware
10:18PM 41.0680 -90.4340 230° Southwest 450 518 40,000  Level FlightAware
10:19PM 41.0140 -90.5170 229° Southwest 448 516 40,000  Level FlightAware
10:20PM 40.9570 -90.6060 230° Southwest 450 518 40,000  Level FlightAware
10:20PM 40.9020 -90.6900 229° Southwest 456 525 40,000  Level FlightAware
10:21PM 40.8470 -90.7750 229° Southwest 459 528 40,000  Level FlightAware
10:22PM 40.7860 -90.8670 229° Southwest 460 529 40,000  Level FlightAware
10:23PM 40.7290 -90.9550 229° Southwest 459 528 40,000  Level FlightAware
10:23PM 40.6660 -91.0510 229° Southwest 458 527 40,000  Level FlightAware
10:24PM 40.6170 -91.1240 229° Southwest 456 525 40,000  Level FlightAware
10:25PM 40.5680 -91.1990 229° Southwest 456 525 40,000  Level FlightAware
10:25PM 40.5040 -91.2950 229° Southwest 455 524 40,000  Level FlightAware
10:26PM 40.4500 -91.3770 229° Southwest 455 524 40,000  Level FlightAware
10:27PM 40.3870 -91.4710 229° Southwest 456 525 40,000  Level FlightAware
10:27PM 40.3350 -91.5480 228° Southwest 457 526 40,000  Level FlightAware
10:28PM 40.2740 -91.6410 229° Southwest 458 527 40,000  Level FlightAware
10:29PM 40.2100 -91.7350 228° Southwest 459 528 40,000  Level FlightAware
10:30PM 40.1430 -91.8350 229° Southwest 458 527 40,000  Level FlightAware
10:30PM 40.0660 -91.9480 228° Southwest 457 526 40,000  Level FlightAware
10:31PM 40.0160 -92.0230 229° Southwest 458 527 40,000  Level FlightAware
10:32PM 39.9630 -92.1000 228° Southwest 458 527 40,000  Level FlightAware
10:33PM 39.8980 -92.1960 229° Southwest 458 527 40,000  Level FlightAware
10:33PM 39.8420 -92.2780 228° Southwest 456 525 40,000  Level FlightAware
10:34PM 39.7680 -92.3850 228° Southwest 456 525 40,000  Level FlightAware
10:35PM 39.7080 -92.4720 228° Southwest 458 527 40,000  Level FlightAware
10:35PM 39.6500 -92.5560 228° Southwest 459 528 40,000  Level FlightAware
10:36PM 39.5900 -92.6430 228° Southwest 458 527 40,000  Level FlightAware
10:37PM 39.5410 -92.7140 228° Southwest 458 527 40,000  Level FlightAware
10:37PM 39.4700 -92.8160 228° Southwest 459 528 40,000  Level FlightAware
10:38PM 39.4230 -92.8830 228° Southwest 460 529 40,000  Level FlightAware
10:39PM 39.3620 -92.9710 228° Southwest 458 527 40,000  Level FlightAware
10:39PM 39.3060 -93.0500 228° Southwest 459 528 40,000  Level FlightAware
10:40PM 39.2430 -93.1400 228° Southwest 458 527 40,000  Level FlightAware
10:41PM 39.1850 -93.2220 228° Southwest 455 524 40,000  Level FlightAware
10:42PM 39.1230 -93.3100 228° Southwest 451 519 40,000  Level FlightAware
10:42PM 39.0680 -93.3870 227° Southwest 451 519 40,000  Level FlightAware
10:43PM 39.0110 -93.4680 228° Southwest 452 520 40,000  Level FlightAware
10:44PM 38.9570 -93.5430 227° Southwest 452 520 40,000  Level FlightAware
10:44PM 38.8950 -93.6300 228° Southwest 452 520 40,000  Level FlightAware
10:45PM 38.8450 -93.7000 227° Southwest 454 522 40,000  Level FlightAware
10:46PM 38.7870 -93.7810 227° Southwest 452 520 40,000  Level FlightAware
10:46PM 38.7270 -93.8640 227° Southwest 452 520 40,000  Level FlightAware
10:47PM 38.6680 -93.9460 227° Southwest 452 520 40,000  Level FlightAware
10:48PM 38.6070 -94.0300 227° Southwest 452 520 40,000  Level FlightAware
10:48PM 38.5510 -94.1070 227° Southwest 455 524 40,000  Level FlightAware
10:49PM 38.4860 -94.1960 227° Southwest 455 524 40,000  Level FlightAware
10:50PM 38.4310 -94.2720 227° Southwest 456 525 40,000  Level FlightAware
10:50PM 38.3770 -94.3460 227° Southwest 457 526 40,000  Level FlightAware
10:51PM 38.3190 -94.4240 227° Southwest 456 525 40,000  Level FlightAware
10:52PM 38.2480 -94.5020 221° Southwest 472 543 40,000  Level FlightAware
10:52PM 38.1760 -94.5450 205° Southwest 492 566 40,000  Level FlightAware
10:53PM 38.0880 -94.5750 195° South 495 570 40,000  Level FlightAware
10:54PM 37.9540 -94.5760 180° South 527 606 40,000  Level FlightAware
10:55PM 37.8620 -94.5420 164° South 528 608 40,000  Level FlightAware
10:55PM 37.7580 -94.5030 163° South 525 604 40,000  Level FlightAware
10:56PM 37.6660 -94.4680 163° South 524 603 40,000  Level FlightAware
10:57PM 37.5590 -94.4290 164° South 523 602 40,000  Level FlightAware
10:57PM 37.4860 -94.4020 164° South 520 598 40,000  Level FlightAware
10:58PM 37.3570 -94.4060 181° South 485 558 40,000  Level FlightAware
10:59PM 37.2800 -94.4610 210° Southwest 481 554 40,000  Level FlightAware
11:00PM 37.2040 -94.5160 210° Southwest 479 551 40,000  Level FlightAware
11:00PM 37.1310 -94.5680 210° Southwest 482 555 40,000  Level FlightAware
11:01PM 37.0410 -94.6210 205° Southwest 486 559 40,000  Level FlightAware
11:02PM 36.9520 -94.6720 205° Southwest 487 560 40,000  Level FlightAware
11:02PM 36.8680 -94.7150 202° Southwest 489 563 40,000  Level FlightAware
11:03PM 36.7770 -94.7490 197° South 490 564 40,000  Level FlightAware
11:04PM 36.6790 -94.7830 196° South 492 566 40,000  Level FlightAware
11:04PM 36.6100 -94.8070 196° South 493 567 40,000  Level FlightAware
11:05PM 36.5120 -94.8410 196° South 497 572 40,000  Level FlightAware
11:06PM 36.4250 -94.8720 196° South 501 577 40,000  Level FlightAware
11:06PM 36.3430 -94.9000 195° South 504 580 40,000  Level FlightAware
11:07PM 36.2430 -94.9350 196° South 508 585 40,000  Level FlightAware
11:08PM 36.1520 -94.9640 194° South 505 581 40,000  Level FlightAware
11:08PM 36.0660 -94.9840 191° South 502 578 40,000  Level FlightAware
11:09PM 35.9600 -95.0070 190° South 508 585 40,000  Level FlightAware
11:10PM 35.8580 -95.0320 191° South 507 583 40,000  Level FlightAware
11:10PM 35.7760 -95.0750 203° Southwest 501 577 40,000  Level FlightAware
11:11PM 35.7090 -95.1200 209° Southwest 501 577 40,000  Level FlightAware
11:12PM 35.6150 -95.1810 208° Southwest 502 578 40,000  Level FlightAware
11:12PM 35.5540 -95.2210 208° Southwest 502 578 40,000  Level FlightAware
11:13PM 35.4610 -95.2820 208° Southwest 503 579 40,000  Level FlightAware
11:14PM 35.3710 -95.3410 208° Southwest 504 580 40,000  Level FlightAware
11:14PM 35.2820 -95.3990 208° Southwest 506 582 40,000  Level FlightAware
11:15PM 35.1940 -95.4560 208° Southwest 507 583 40,000  Level FlightAware
11:16PM 35.0880 -95.5230 207° Southwest 507 583 40,000  Level FlightAware
11:17PM 35.0020 -95.5800 209° Southwest 510 587 40,000  Level FlightAware
11:17PM 34.9080 -95.6410 208° Southwest 510 587 40,000  Level FlightAware
11:18PM 34.8370 -95.6860 207° Southwest 512 589 40,000  Level FlightAware
11:19PM 34.7420 -95.7480 208° Southwest 513 590 40,000  Level FlightAware
11:19PM 34.6560 -95.8020 207° Southwest 510 587 40,000  Level FlightAware
11:20PM 34.5820 -95.8490 208° Southwest 509 586 40,000  Level FlightAware
11:21PM 34.4920 -95.9070 208° Southwest 510 587 40,000  Level FlightAware
11:21PM 34.4070 -95.9610 208° Southwest 511 588 40,000  Level FlightAware
11:22PM 34.3140 -96.0200 208° Southwest 513 590 40,000  Level FlightAware
11:22PM 34.2968 -96.0307 207° Southwest 511 588 40,000  Level FlightAware ADS-B
11:23PM 34.2324 -96.0713 208° Southwest 513 590 40,000  Level FlightAware ADS-B
11:24PM 34.1340 -96.1335 208° Southwest 514 592 40,000  Level FlightAware ADS-B
11:24PM 34.0510 -96.1860 208° Southwest 514 592 40,000  Level FlightAware
11:25PM 33.9670 -96.2380 207° Southwest 513 590 40,000  Level FlightAware
11:26PM 33.8750 -96.2960 208° Southwest 512 589 40,000  Level FlightAware
11:26PM 33.7930 -96.3480 208° Southwest 510 587 40,000  Level FlightAware
11:27PM 33.6990 -96.4060 207° Southwest 508 585 40,000  Level FlightAware
11:28PM 33.6130 -96.4590 207° Southwest 507 583 40,000  Level FlightAware
11:28PM 33.5260 -96.5130 207° Southwest 508 585 40,000  Level FlightAware
11:29PM 33.4644 -96.5514 207° Southwest 506 582 40,000  Level FlightAware ADS-B
11:29PM 33.4017 -96.5902 207° Southwest 505 581 40,000  Level FlightAware ADS-B
11:30PM 33.2680 -96.6450 199° South 508 585 40,000  Level FlightAware
11:31PM 33.2412 -96.6452 180° South 507 583 40,000  Level FlightAware ADS-B
11:31PM 33.2341 -96.6447 177° South 511 588 40,000  Level FlightAware ADS-B
11:31PM 33.1627 -96.6391 176° South 511 588 40,000  Level FlightAware ADS-B
11:32PM 33.0916 -96.6337 176° South 509 586 40,000  Level FlightAware ADS-B
11:33PM 32.9664 -96.6240 176° South 507 583 40,000  Level FlightAware ADS-B
11:33PM 32.8955 -96.6186 176° South 508 585 40,000  Level FlightAware ADS-B
11:34PM 32.8120 -96.6121 176° South 508 585 40,000  Level FlightAware ADS-B
11:34PM 32.7251 -96.6055 176° South 509 586 40,000 -960 Level FlightAware ADS-B
11:35PM 32.5900 -96.5950 176° South 517 595 38,500 -1,740 Descending FlightAware
11:35PM 32.5562 -96.5926 177° South 519 597 38,000 -2,220 Descending FlightAware ADS-B
11:36PM 32.4812 -96.5869 176° South 525 604 36,900 -2,040 Descending FlightAware ADS-B
11:37PM 32.3963 -96.5804 176° South 529 609 35,800 -1,860 Descending FlightAware ADS-B
11:37PM 32.2900 -96.5720 176° South 529 609 34,500 -1,680 Descending FlightAware
11:38PM 32.2539 -96.5695 177° South 529 609 34,200 -1,140 Descending FlightAware ADS-B
11:38PM 32.1830 -96.5640 176° South 509 586 33,700 -1,080 Descending FlightAware
11:39PM 32.0960 -96.5580 177° South 500 575 33,000 -1,080 Descending FlightAware
11:39PM 32.0613 -96.5552 176° South 500 575 32,800 -960 Descending FlightAware ADS-B
11:39PM 31.9918 -96.5499 176° South 502 578 32,300 -1,020 Descending FlightAware ADS-B
11:40PM 31.9199 -96.5446 176° South 500 575 31,800 -1,020 Descending FlightAware ADS-B
11:40PM 31.8495 -96.5394 176° South 497 572 31,300 -1,200 Descending FlightAware ADS-B
11:41PM 31.7790 -96.5340 176° South 494 568 30,600 -1,680 Descending FlightAware ADS-B
11:41PM 31.7097 -96.5289 176° South 498 573 29,600 -1,620 Descending FlightAware ADS-B
11:42PM 31.6414 -96.5238 176° South 492 566 29,000 -660 Descending FlightAware ADS-B
11:42PM 31.5848 -96.5195 176° South 489 563 29,000  Level FlightAware ADS-B
11:43PM 31.5424 -96.5137 173° South 490 564 29,000  Level FlightAware ADS-B
11:43PM 31.5058 -96.5058 170° South 492 566 29,000  Level FlightAware ADS-B
11:43PM 31.4844 -96.5000 167° South 493 567 29,000  Level FlightAware ADS-B
11:43PM 31.4447 -96.4863 164° South 492 566 29,000  Level FlightAware ADS-B
11:44PM 31.3790 -96.4617 162° South 493 567 29,000 -540 Level FlightAware ADS-B
11:44PM 31.3135 -96.4372 162° South 491 565 28,500 -1,260 Descending FlightAware ADS-B
11:45PM 31.2443 -96.4113 162° South 487 560 27,700 -1,680 Descending FlightAware ADS-B
11:45PM 31.1982 -96.3942 162° South 482 555 27,000 -2,100 Descending FlightAware ADS-B
11:46PM 31.1714 -96.3827 160° South 481 554 26,500 -2,280 Descending FlightAware ADS-B
11:46PM 31.1395 -96.3659 156° South 476 548 25,900 -2,040 Descending FlightAware ADS-B
11:46PM 31.1058 -96.3443 151° Southeast 467 537 25,400 -2,220 Descending FlightAware ADS-B
11:47PM 31.0515 -96.3040 148° Southeast 458 527 24,200 -2,220 Descending FlightAware ADS-B
11:47PM 30.9976 -96.2639 147° Southeast 452 520 23,200 -2,100 Descending FlightAware ADS-B
11:48PM 30.9451 -96.2249 147° Southeast 444 511 22,100 -2,100 Descending FlightAware ADS-B
11:48PM 30.8931 -96.1867 148° Southeast 436 502 21,100 -1,980 Descending FlightAware ADS-B
11:49PM 30.8403 -96.1477 148° Southeast 430 495 20,100 -1,980 Descending FlightAware ADS-B
11:49PM 30.7898 -96.1100 147° Southeast 423 487 19,100 -2,040 Descending FlightAware ADS-B
11:50PM 30.7412 -96.0740 148° Southeast 417 480 18,100 -2,040 Descending FlightAware ADS-B
11:50PM 30.6924 -96.0381 148° Southeast 409 471 17,100 -2,040 Descending FlightAware ADS-B
11:51PM 30.6446 -96.0030 148° Southeast 404 465 16,100 -1,920 Descending FlightAware ADS-B
11:51PM 30.5975 -95.9683 148° Southeast 399 459 15,200 -1,980 Descending FlightAware ADS-B
11:52PM 30.5497 -95.9332 148° Southeast 394 453 14,100 -2,160 Descending FlightAware ADS-B
11:52PM 30.5032 -95.8989 148° Southeast 388 447 13,000 -1,980 Descending FlightAware ADS-B
11:53PM 30.4709 -95.8747 147° Southeast 381 438 12,400 -1,260 Descending FlightAware ADS-B
11:53PM 30.4339 -95.8419 143° Southeast 368 423 12,000 -480 Descending FlightAware ADS-B
11:53PM 30.3958 -95.8023 138° Southeast 368 423 12,000  Level FlightAware ADS-B
11:54PM 30.3574 -95.7623 138° Southeast 370 426 12,000 -540 Level FlightAware ADS-B
11:54PM 30.3191 -95.7222 138° Southeast 365 420 11,500 -960 Descending FlightAware ADS-B
11:55PM 30.2803 -95.6816 138° Southeast 336 387 11,000 -720 Descending FlightAware ADS-B
11:56PM 30.2471 -95.6470 138° Southeast 309 356 10,800 -420 Descending FlightAware ADS-B
11:56PM 30.2294 -95.6285 138° Southeast 297 342 10,700 -300 Descending FlightAware ADS-B
11:56PM 30.2246 -95.6230 135° Southeast 294 338 10,700  Level FlightAware ADS-B
11:56PM 30.2205 -95.6183 135° Southeast 292 336 10,700  Level FlightAware ADS-B
11:56PM 30.2183 -95.6123 113° Southeast 292 336 10,700 -780 Level FlightAware ADS-B
11:56PM 30.2156 -95.6070 121° Southeast 292 336 10,600 -720 Descending FlightAware ADS-B
11:56PM 30.2137 -95.5994 106° East 293 337 10,600 -840 Level FlightAware ADS-B
11:57PM 30.2038 -95.5527 104° East 300 345 10,100 -1,200 Descending FlightAware ADS-B
11:57PM 30.1993 -95.5297 103° East 303 349 9,700 -1,680 Descending FlightAware ADS-B
11:57PM 30.1947 -95.5058 103° East 306 352 9,300 -1,560 Descending FlightAware ADS-B
11:57PM 30.1902 -95.4812 102° East 307 353 8,900 -1,380 Descending FlightAware ADS-B
11:58PM 30.1859 -95.4568 102° East 306 352 8,600 -1,200 Descending FlightAware ADS-B
11:58PM 30.1816 -95.4326 102° East 303 349 8,300 -1,200 Descending FlightAware ADS-B
11:58PM 30.1775 -95.4082 101° East 300 345 8,000 -1,200 Descending FlightAware ADS-B
11:58PM 30.1736 -95.3850 101° East 300 345 7,700 -1,020 Descending FlightAware ADS-B
11:59PM 30.1698 -95.3617 101° East 296 341 7,500 -600 Descending FlightAware ADS-B
11:59PM 30.1662 -95.3385 100° East 293 337 7,400 -420 Descending FlightAware ADS-B
11:59PM 30.1626 -95.3152 100° East 291 335 7,300 -600 Descending FlightAware ADS-B
11:59PM 30.1590 -95.2923 100° East 290 334 7,100 -780 Descending FlightAware ADS-B
12:00AM 30.1554 -95.2693 100° East 289 333 6,900 -840 Descending FlightAware ADS-B
12:00AM 30.1518 -95.2459 100° East 291 335 6,700 -1,020 Descending FlightAware ADS-B
12:00AM 30.1479 -95.2208 100° East 297 342 6,400 -840 Descending FlightAware ADS-B
12:01AM 30.1430 -95.1892 100° East 298 343 6,200 -720 Descending FlightAware ADS-B
12:01AM 30.1393 -95.1656 100° East 296 341 6,000 -600 Descending FlightAware ADS-B
12:01AM 30.1356 -95.1417 100° East 294 338 5,900 -660 Descending FlightAware ADS-B
12:01AM 30.1325 -95.1219 100° East 292 336 5,700 -660 Descending FlightAware ADS-B
12:02AM 30.1289 -95.0991 100° East 289 333 5,600 -600 Descending FlightAware ADS-B
12:02AM 30.1253 -95.0757 100° East 282 325 5,400 -780 Descending FlightAware ADS-B
12:02AM 30.1219 -95.0537 100° East 272 313 5,200 -1,020 Descending FlightAware ADS-B
12:02AM 30.1187 -95.0324 100° East 262 302 4,900 -1,020 Descending FlightAware ADS-B
12:03AM 30.1157 -95.0117 100° East 252 290 4,700 -780 Descending FlightAware ADS-B
12:03AM 30.1128 -94.9921 100° East 243 280 4,500 -1,020 Descending FlightAware ADS-B
12:03AM 30.1101 -94.9720 99° East 242 278 4,200 -1,020 Descending FlightAware ADS-B
12:03AM 30.1095 -94.9681 100° East 240 276 4,200 -900 Level FlightAware ADS-B
12:03AM 30.1086 -94.9637 103° East 240 276 4,100 -1,740 Descending FlightAware ADS-B
12:03AM 30.1074 -94.9596 109° East 235 270 4,000 -780 Descending FlightAware ADS-B
12:03AM 30.1052 -94.9546 117° Southeast 231 266 4,000  Level FlightAware ADS-B
12:03AM 30.1032 -94.9514 126° Southeast 228 262 4,000  Level FlightAware ADS-B
12:03AM 30.1007 -94.9482 132° Southeast 224 258 4,000  Level FlightAware ADS-B
12:04AM 30.0937 -94.9427 146° Southeast 216 249 4,000 -540 Level FlightAware ADS-B
12:04AM 30.0901 -94.9412 160° South 214 246 3,900  Descending FlightAware ADS-B
12:04AM 30.0865 -94.9403 168° South 212 244 4,000 840 Climbing FlightAware ADS-B
12:04AM 30.0834 -94.9399 174° South 211 243 4,000  Level FlightAware ADS-B
12:04AM 30.0793 -94.9397 178° South 211 243 4,000  Level FlightAware ADS-B
12:04AM 30.0719 -94.9397 180° South 210 242 4,000  Level FlightAware ADS-B
12:04AM 30.0625 -94.9400 182° South 210 242 4,000  Level FlightAware ADS-B
12:04AM 30.0594 -94.9403 185° South 209 241 4,000  Level FlightAware ADS-B
12:04AM 30.0560 -94.9411 192° South 208 239 4,000  Level FlightAware ADS-B
12:04AM 30.0532 -94.9421 197° South 207 238 4,000  Level FlightAware ADS-B
12:04AM 30.0497 -94.9440 205° Southwest 207 238 4,000  Level FlightAware ADS-B
12:04AM 30.0472 -94.9455 207° Southwest 207 238 4,000  Level FlightAware ADS-B
12:04AM 30.0432 -94.9481 209° Southwest 207 238 4,000  Level FlightAware ADS-B
12:05AM 30.0373 -94.9517 208° Southwest 206 237 4,000  Level FlightAware ADS-B
12:05AM 30.0336 -94.9542 210° Southwest 207 238 4,000  Level FlightAware ADS-B
12:05AM 30.0301 -94.9571 216° Southwest 207 238 4,000  Level FlightAware ADS-B
12:05AM 30.0261 -94.9610 220° Southwest 206 237 4,000  Level FlightAware ADS-B
12:05AM 30.0162 -94.9708 221° Southwest 207 238 4,000  Level FlightAware ADS-B
12:05AM 30.0060 -94.9815 222° Southwest 207 238 4,000  Level FlightAware ADS-B
12:05AM 30.0013 -94.9867 224° Southwest 207 238 4,000  Level FlightAware ADS-B
12:05AM 29.9989 -94.9899 229° Southwest 207 238 4,000  Level FlightAware ADS-B
12:06AM 29.9972 -94.9929 237° Southwest 209 241 4,000  Level FlightAware ADS-B
12:06AM 29.9957 -94.9970 247° West 211 243 4,000  Level FlightAware ADS-B
12:06AM 29.9947 -95.0004 251° West 212 244 4,000  Level FlightAware ADS-B
12:06AM 29.9940 -95.0047 259° West 214 246 4,000  Level FlightAware ADS-B
12:06AM 29.9935 -95.0085 261° West 214 246 4,000  Level FlightAware ADS-B
12:06AM 29.9930 -95.0147 265° West 216 249 4,000  Level FlightAware ADS-B
12:06AM 29.9927 -95.0244 268° West 216 249 4,000  Level FlightAware ADS-B
12:06AM 29.9927 -95.0359 270° West 216 249 4,000  Level FlightAware ADS-B
12:06AM 29.9930 -95.0532 271° West 217 250 4,000  Level FlightAware ADS-B
12:07AM 29.9933 -95.0693 271° West 215 247 4,000 -240 Level FlightAware ADS-B
12:07AM 29.9933 -95.0870 270° West 216 249 3,900 -480 Descending FlightAware ADS-B
12:07AM 29.9934 -95.0984 271° West 217 250 3,800 -900 Descending FlightAware ADS-B
12:07AM 29.9934 -95.1106 270° West 217 250 3,600 -1,380 Descending FlightAware ADS-B
12:07AM 29.9934 -95.1240 270° West 217 250 3,300 -1,380 Descending FlightAware ADS-B
12:08AM 29.9934 -95.1412 270° West 211 243 3,000 -1,020 Descending FlightAware ADS-B
12:08AM 29.9935 -95.1591 270° West 197 227 2,800 -1,020 Descending FlightAware ADS-B
12:08AM 29.9935 -95.1745 270° West 187 215 2,500 -960 Descending FlightAware ADS-B
12:08AM 29.9935 -95.1905 270° West 174 200 2,300 -780 Descending FlightAware ADS-B
12:09AM 29.9935 -95.2022 270° West 156 180 2,100 -840 Descending FlightAware ADS-B
12:09AM 29.9935 -95.2149 270° West 146 168 1,900 -720 Descending FlightAware ADS-B
12:09AM 29.9935 -95.2218 270° West 139 160 1,800 -780 Descending FlightAware ADS-B
12:09AM 29.9935 -95.2327 270° West 132 152 1,600 -660 Descending FlightAware ADS-B
12:10AM 29.9935 -95.2418 270° West 134 154 1,500 -660 Descending FlightAware ADS-B
12:10AM 29.9935 -95.2528 270° West 133 153 1,300 -900 Descending FlightAware ADS-B
12:10AM 29.9934 -95.2614 269° West 133 153 1,100 -660 Descending FlightAware ADS-B
12:10AM 29.9935 -95.2728 271° West 135 155 1,000 -540 Descending FlightAware ADS-B
12:10AM 29.9935 -95.2785 270° West 135 155 900 -900 Descending FlightAware ADS-B
12:11AM 29.9935 -95.2876 270° West 135 155 700 -900 Descending FlightAware ADS-B
12:11AM 29.9935 -95.2984 270° West 135 155 500 -780 Descending FlightAware ADS-B
12:11AM 29.9935 -95.3112 270° West 139 160 300 -780 Descending FlightAware ADS-B
12:11AM 29.9935 -95.3162 270° West 139 160 200 -600 Descending FlightAware ADS-B
12:12AM 29.9934 -95.3263 269° West 139 160 100 -480 Descending FlightAware ADS-B